Time;durP1;ratioP1;P1;durP2;ratioP2;P2;SDS_P1;SDS_P2;PMS_P1;PMS_P2;Temp;Humidity;BMP_temperature;BMP_pressure;BME280_temperature;BME280_humidity;BME280_pressure;Samples;Min_cycle;Max_cycle;Signal;HPM_P1;HPM_P2
2023/04/12 03:59:47;;;;;;;5.30;4.22;;;;;;;8.54;70.83;99923.59;5607378;31;80696;-57
2023/04/12 04:02:52;;;;;;;7.28;4.32;;;;;;;8.54;70.83;99927.09;5603646;31;31599;-57
2023/04/12 04:05:55;;;;;;;7.57;4.70;;;;;;;7.82;71.53;99926.66;5603623;31;31885;-57
2023/04/12 04:08:58;;;;;;;7.80;4.32;;;;;;;7.79;71.76;99922.66;5603122;31;33676;-57
2023/04/12 04:12:01;;;;;;;7.43;4.45;;;;;;;7.82;71.99;99916.00;5602275;31;33555;-57
2023/04/12 04:15:04;;;;;;;5.10;3.72;;;;;;;7.97;72.21;99913.25;5603297;31;34369;-57
2023/04/12 04:18:07;;;;;;;5.45;3.80;;;;;;;8.08;70.10;99916.66;5603394;31;33166;-57
2023/04/12 04:21:13;;;;;;;6.22;3.62;;;;;;;8.27;69.65;99919.50;5603461;31;34669;-57
2023/04/12 04:24:17;;;;;;;5.50;3.60;;;;;;;8.37;69.07;99908.75;5603609;31;33513;-57
2023/04/12 04:27:21;;;;;;;5.75;3.92;;;;;;;8.41;67.87;99909.81;5602932;31;34397;-57
2023/04/12 04:30:24;;;;;;;3.47;2.92;;;;;;;8.68;78.12;99904.03;5603196;31;33052;-57
2023/04/12 04:33:26;;;;;;;4.93;3.60;;;;;;;8.72;76.19;99897.06;5603163;31;33336;-57
2023/04/12 04:36:32;;;;;;;3.65;2.97;;;;;;;8.86;72.81;99902.56;5602137;31;33085;-57
2023/04/12 04:39:35;;;;;;;5.72;3.53;;;;;;;8.74;66.80;99904.78;5603201;31;33675;-57
2023/04/12 04:42:38;;;;;;;5.72;3.72;;;;;;;8.52;66.53;99902.56;5603244;31;34435;-57
2023/04/12 04:45:41;;;;;;;7.78;3.87;;;;;;;8.34;68.22;99910.09;5603123;31;33537;-57
2023/04/12 04:48:44;;;;;;;4.62;3.50;;;;;;;8.31;67.50;99901.84;5603221;31;33649;-57
2023/04/12 04:51:46;;;;;;;8.93;3.67;;;;;;;8.23;69.83;99900.56;5602037;31;31765;-57
2023/04/12 04:54:49;;;;;;;4.37;3.28;;;;;;;8.27;69.34;99903.47;5603130;31;33251;-57
2023/04/12 04:57:52;;;;;;;5.30;3.58;;;;;;;8.14;66.64;99905.66;5602693;31;33499;-57
2023/04/12 05:00:56;;;;;;;5.20;3.05;;;;;;;8.21;69.05;99900.84;5601417;31;33496;-57
2023/04/12 05:03:59;;;;;;;3.85;2.50;;;;;;;8.35;67.56;99898.34;5602779;31;33253;-57
2023/04/12 05:07:02;;;;;;;5.43;2.75;;;;;;;8.50;64.60;99897.47;5602227;31;33315;-57
2023/04/12 05:10:05;;;;;;;5.32;3.17;;;;;;;8.60;65.03;99899.28;5594357;31;33335;-57
2023/04/12 05:13:08;;;;;;;5.87;2.85;;;;;;;8.63;65.58;99894.19;5589193;31;34439;-57
2023/04/12 05:16:11;;;;;;;5.12;3.00;;;;;;;8.68;65.28;99896.03;5579220;31;33232;-57
2023/04/12 05:19:14;;;;;;;5.10;3.20;;;;;;;8.89;65.55;99885.97;5589288;31;32800;-57
2023/04/12 05:22:21;;;;;;;4.00;2.72;;;;;;;9.06;63.52;99874.84;5589248;31;33909;-59
2023/04/12 05:25:24;;;;;;;6.37;3.12;;;;;;;9.21;67.65;99887.28;5589231;31;33763;-58
2023/04/12 05:28:28;;;;;;;6.05;3.10;;;;;;;9.10;63.01;99883.88;5589428;31;32100;-58
2023/04/12 05:31:32;;;;;;;8.05;3.50;;;;;;;9.31;62.51;99885.31;5589100;31;33428;-58
2023/04/12 05:34:36;;;;;;;4.22;2.53;;;;;;;9.38;61.79;99887.63;5589424;31;33155;-58
2023/04/12 05:37:38;;;;;;;5.15;2.97;;;;;;;9.28;61.14;99883.19;5589089;31;33568;-58
2023/04/12 05:40:44;;;;;;;4.75;2.85;;;;;;;9.60;61.36;99898.62;5588269;31;31744;-58
2023/04/12 05:43:50;;;;;;;4.22;2.85;;;;;;;9.79;64.39;99900.53;5578706;31;32244;-58
2023/04/12 05:46:53;;;;;;;4.22;2.80;;;;;;;9.92;61.38;99899.06;5573759;31;32270;-58
2023/04/12 05:49:59;;;;;;;;;;;;;;;10.11;60.16;99903.34;5569719;31;33416;-58
2023/04/12 05:53:03;;;;;;;3.35;2.30;;;;;;;10.31;68.27;99913.03;5569360;31;32340;-58
2023/04/12 05:56:06;;;;;;;6.12;2.60;;;;;;;10.41;60.01;99903.25;5569373;31;31585;-58
2023/04/12 05:59:10;;;;;;;4.00;2.62;;;;;;;10.60;73.87;99903.25;5567437;32;33686;-58
2023/04/12 06:02:13;;;;;;;3.47;2.60;;;;;;;10.56;57.15;99905.69;5572762;31;33786;-58
2023/04/12 06:05:17;;;;;;;3.53;2.60;;;;;;;10.82;57.20;99908.75;5588490;31;32165;-58
2023/04/12 06:08:20;;;;;;;2.87;2.35;;;;;;;10.83;56.60;99926.47;5588689;31;33871;-59
2023/04/12 06:11:23;;;;;;;4.90;2.42;;;;;;;10.69;55.23;99929.06;5588692;31;34265;-58
2023/04/12 06:14:27;;;;;;;5.03;2.75;;;;;;;10.76;55.18;99936.75;5576878;31;34298;-58
2023/04/12 06:17:30;;;;;;;5.85;2.45;;;;;;;10.36;55.32;99933.56;5585524;31;31789;-58
2023/04/12 06:20:33;;;;;;;3.00;2.40;;;;;;;10.38;56.30;99936.78;5587566;31;34269;-58
2023/04/12 06:23:39;;;;;;;4.40;2.42;;;;;;;10.27;56.22;99921.94;5573468;31;34821;-58
2023/04/12 06:26:45;;;;;;;3.42;2.50;;;;;;;10.37;56.40;99926.34;5579136;31;32878;-58
2023/04/12 06:29:51;;;;;;;4.65;2.35;;;;;;;10.49;57.45;99929.38;5579391;31;31681;-58
2023/04/12 06:32:55;;;;;;;3.47;2.33;;;;;;;10.86;64.24;99928.56;5574650;31;32748;-58
2023/04/12 06:36:04;;;;;;;3.35;2.40;;;;;;;10.52;53.54;99934.94;5572537;31;31943;-58
2023/04/12 06:39:10;;;;;;;7.32;2.50;;;;;;;10.37;55.00;99929.84;5573093;31;34311;-58
2023/04/12 06:42:17;;;;;;;7.35;2.55;;;;;;;10.49;53.84;99937.41;5578285;31;34073;-58
2023/04/12 06:45:20;;;;;;;6.18;2.20;;;;;;;10.47;54.55;99936.94;5580370;31;34379;-58
2023/04/12 06:48:24;;;;;;;3.75;2.33;;;;;;;10.55;54.09;99934.38;5579324;31;33678;-58
2023/04/12 06:51:27;;;;;;;2.55;1.90;;;;;;;10.82;66.94;99927.53;5575924;31;34060;-58
2023/04/12 06:54:38;;;;;;;2.55;2.00;;;;;;;11.08;53.83;99930.59;5582562;31;33102;-58
2023/04/12 06:57:44;;;;;;;2.95;2.10;;;;;;;10.89;54.47;99927.16;5575860;31;33128;-58
2023/04/12 07:00:49;;;;;;;3.12;2.00;;;;;;;10.94;52.40;99935.13;5579471;31;33657;-58
2023/04/12 07:03:54;;;;;;;5.10;2.53;;;;;;;11.01;52.75;99935.56;5576294;31;33153;-58
2023/04/12 07:06:58;;;;;;;3.40;2.17;;;;;;;10.90;52.83;99934.13;5579106;31;34210;-58
2023/04/12 07:10:03;;;;;;;5.00;2.55;;;;;;;11.04;52.58;99933.06;5571224;31;34320;-58
2023/04/12 07:13:07;;;;;;;4.32;2.30;;;;;;;10.98;55.04;99934.25;5579894;31;33554;-58
2023/04/12 07:16:13;;;;;;;3.20;2.30;;;;;;;10.95;51.70;99944.75;5585434;31;33640;-58
2023/04/12 07:19:16;;;;;;;2.80;2.05;;;;;;;10.99;52.83;99941.22;5584161;31;33651;-58
2023/04/12 07:22:20;;;;;;;4.00;2.47;;;;;;;10.83;53.12;99931.81;5585784;31;33265;-58
2023/04/12 07:25:24;;;;;;;4.30;2.17;;;;;;;10.83;55.67;99929.16;5586030;31;33638;-58
2023/04/12 07:28:27;;;;;;;5.12;2.20;;;;;;;11.08;52.46;99927.13;5586204;31;33543;-58
2023/04/12 07:31:29;;;;;;;5.03;2.37;;;;;;;11.44;53.29;99932.66;5586332;31;33258;-58
2023/04/12 07:34:32;;;;;;;3.53;2.15;;;;;;;11.34;52.12;99932.84;5584940;31;34437;-58
2023/04/12 07:37:35;;;;;;;4.07;2.42;;;;;;;11.14;52.27;99934.78;5578754;31;33605;-58
2023/04/12 07:40:37;;;;;;;5.32;2.72;;;;;;;11.21;51.87;99927.16;5581079;31;33534;-58
2023/04/12 07:43:40;;;;;;;2.92;2.35;;;;;;;11.34;52.57;99930.16;5574208;31;32018;-58
2023/04/12 07:46:42;;;;;;;3.85;2.30;;;;;;;11.40;57.94;99919.03;5581115;31;33629;-58
2023/04/12 07:49:45;;;;;;;2.87;2.10;;;;;;;11.26;50.72;99932.44;5582795;31;33572;-58
2023/04/12 07:52:48;;;;;;;4.28;2.25;;;;;;;11.44;53.96;99928.09;5580982;31;33184;-58
2023/04/12 07:55:51;;;;;;;3.20;2.30;;;;;;;11.51;57.55;99925.81;5582479;31;33665;-58
2023/04/12 07:58:53;;;;;;;3.87;2.65;;;;;;;11.59;61.00;99921.66;5577677;31;33800;-58
2023/04/12 08:01:57;;;;;;;4.22;2.40;;;;;;;11.72;50.94;99933.47;5568627;31;35204;-58
2023/04/12 08:05:00;;;;;;;3.40;2.45;;;;;;;11.56;49.01;99932.97;5578034;31;33567;-58
2023/04/12 08:08:03;;;;;;;8.93;3.47;;;;;;;11.48;52.12;99930.97;5569506;31;33285;-58
2023/04/12 08:11:05;;;;;;;5.07;3.20;;;;;;;11.52;51.41;99932.78;5567034;31;33534;-58
2023/04/12 08:14:09;;;;;;;4.35;2.45;;;;;;;11.42;51.83;99932.16;5572034;31;33691;-58
2023/04/12 08:17:11;;;;;;;3.20;2.45;;;;;;;11.55;52.38;99936.75;5572750;31;33654;-58
2023/04/12 08:20:17;;;;;;;3.92;2.50;;;;;;;11.55;51.76;99935.94;5577622;31;33683;-58
2023/04/12 08:23:20;;;;;;;6.93;2.67;;;;;;;11.57;50.17;99944.50;5568071;31;33554;-58
2023/04/12 08:26:22;;;;;;;5.15;2.78;;;;;;;11.62;52.09;99944.41;5580824;31;33622;-58
2023/04/12 08:29:24;;;;;;;2.75;2.22;;;;;;;11.53;50.30;99933.56;5581770;31;33174;-58
2023/04/12 08:32:26;;;;;;;4.45;2.80;;;;;;;11.69;50.69;99928.72;5576065;31;34482;-58
2023/04/12 08:35:29;;;;;;;5.25;2.60;;;;;;;11.82;51.35;99922.56;5570059;31;34334;-58
2023/04/12 08:38:31;;;;;;;5.10;2.20;;;;;;;11.88;48.83;99926.72;5577087;31;33613;-58
2023/04/12 08:41:39;;;;;;;4.32;2.15;;;;;;;11.79;49.46;99923.16;5571742;31;33662;-58
2023/04/12 08:44:41;;;;;;;4.32;2.20;;;;;;;11.98;51.76;99915.78;5574242;31;33881;-58
2023/04/12 08:47:44;;;;;;;4.97;2.20;;;;;;;12.22;53.86;99906.72;5583004;31;33323;-58
2023/04/12 08:50:46;;;;;;;4.30;2.60;;;;;;;12.38;49.87;99907.13;5583823;31;33615;-58
2023/04/12 08:53:52;;;;;;;3.23;2.23;;;;;;;12.41;48.86;99903.84;5579242;31;33652;-58
2023/04/12 08:56:58;;;;;;;5.25;2.45;;;;;;;12.53;50.18;99906.00;5585994;31;33807;-58
2023/04/12 09:00:02;;;;;;;4.87;2.67;;;;;;;12.38;49.02;99913.34;5580636;31;33728;-58
2023/04/12 09:03:06;;;;;;;2.83;2.00;;;;;;;12.59;56.71;99902.09;5580461;31;33372;-58
2023/04/12 09:06:12;;;;;;;3.12;2.37;;;;;;;12.60;47.74;99901.78;5584102;31;34333;-58
2023/04/12 09:09:15;;;;;;;3.95;2.35;;;;;;;12.54;49.03;99904.91;5587129;31;33951;-58
2023/04/12 09:12:19;;;;;;;3.80;2.37;;;;;;;12.58;46.30;99897.81;5584396;31;34343;-58
2023/04/12 09:15:21;;;;;;;5.80;2.47;;;;;;;12.63;53.39;99901.19;5578323;31;33701;-58
2023/04/12 09:18:26;;;;;;;3.33;2.20;;;;;;;12.62;48.75;99896.13;5574715;31;33666;-58
2023/04/12 09:21:29;;;;;;;3.40;2.40;;;;;;;12.70;45.71;99906.91;5577517;31;34356;-58
2023/04/12 09:24:49;;;;;;;4.25;2.20;;;;;;;12.67;46.40;99891.41;5578657;31;34380;-58
2023/04/12 09:27:53;;;;;;;5.60;2.62;;;;;;;12.60;45.09;99906.38;5580379;31;34281;-58
2023/04/12 09:30:57;;;;;;;5.20;2.85;;;;;;;12.61;48.05;99897.19;5578771;31;34275;-58
2023/04/12 09:34:07;;;;;;;4.15;2.60;;;;;;;12.62;47.49;99894.22;5572522;31;34414;-58
2023/04/12 09:37:15;;;;;;;5.75;2.70;;;;;;;12.58;48.25;99885.19;5572979;31;34482;-58
2023/04/12 09:40:23;;;;;;;4.62;2.55;;;;;;;12.61;46.63;99879.16;5579080;31;33713;-58
2023/04/12 09:43:36;;;;;;;4.20;2.78;;;;;;;12.77;46.42;99884.97;5577887;31;34018;-58
2023/04/12 09:46:50;;;;;;;4.78;2.87;;;;;;;12.82;50.20;99874.09;5576911;31;33718;-58
2023/04/12 09:49:53;;;;;;;4.03;2.40;;;;;;;12.92;46.50;99886.50;5585455;31;33635;-58
2023/04/12 09:52:57;;;;;;;5.70;2.37;;;;;;;12.93;47.68;99864.66;5581320;31;33331;-58
2023/04/12 09:56:02;;;;;;;5.68;2.55;;;;;;;12.96;45.96;99865.94;5578246;31;33736;-58
2023/04/12 09:59:06;;;;;;;4.87;2.35;;;;;;;12.92;44.00;99860.41;5581611;31;34285;-58
2023/04/12 10:02:21;;;;;;;4.35;2.05;;;;;;;13.17;45.25;99872.37;5586294;31;33633;-55
2023/04/12 10:05:25;;;;;;;4.43;2.55;;;;;;;13.18;42.92;99859.75;5583234;31;33655;-56
2023/04/12 10:08:29;;;;;;;3.87;2.50;;;;;;;13.12;42.47;99861.75;5582254;31;33665;-56
2023/04/12 10:11:36;;;;;;;5.57;2.47;;;;;;;13.00;42.75;99869.59;5588349;31;33415;-56
2023/04/12 10:14:40;;;;;;;3.25;2.35;;;;;;;12.97;43.64;99859.47;5573789;31;34347;-56
2023/04/12 10:17:51;;;;;;;5.10;2.95;;;;;;;13.31;45.46;99850.81;5577402;31;33584;-57
2023/04/12 10:20:54;;;;;;;4.40;2.85;;;;;;;13.38;44.27;99864.59;5584532;31;33164;-56
2023/04/12 10:23:57;;;;;;;3.72;2.45;;;;;;;13.26;43.73;99845.53;5584723;31;34119;-57
2023/04/12 10:27:03;;;;;;;6.22;2.37;;;;;;;13.40;45.78;99851.59;5579462;31;34250;-56
2023/04/12 10:30:19;;;;;;;5.35;2.28;;;;;;;13.53;55.18;99849.91;5577087;31;33668;-56
2023/04/12 10:33:26;;;;;;;4.25;2.60;;;;;;;13.44;43.51;99842.91;5576443;31;33787;-57
2023/04/12 10:36:52;;;;;;;4.40;2.45;;;;;;;13.48;41.87;99852.75;5573881;31;33741;-56
2023/04/12 10:39:54;;;;;;;3.62;2.40;;;;;;;13.41;42.31;99852.41;5575450;31;34291;-56
2023/04/12 10:43:22;;;;;;;4.60;2.15;;;;;;;13.16;44.18;99849.28;5579840;31;33563;-56
2023/04/12 10:46:47;;;;;;;3.95;2.20;;;;;;;13.38;41.78;99834.19;5578352;31;33223;-58
2023/04/12 10:50:38;;;;;;;3.20;1.92;;;;;;;13.40;43.27;99821.97;5574294;31;33548;-56
2023/04/12 10:53:41;;;;;;;4.47;2.65;;;;;;;13.59;41.25;99818.25;5560923;31;34397;-56
2023/04/12 10:56:47;;;;;;;6.78;2.75;;;;;;;13.64;40.96;99831.56;5584589;31;31771;-57
2023/04/12 10:59:50;;;;;;;7.25;3.17;;;;;;;13.73;41.92;99829.69;5585159;31;31999;-56
2023/04/12 11:03:08;;;;;;;7.28;2.60;;;;;;;13.73;44.61;99826.19;5584549;31;33307;-56
2023/04/12 11:06:11;;;;;;;3.90;2.15;;;;;;;13.71;43.19;99815.75;5581410;31;33193;-56
2023/04/12 11:09:32;;;;;;;4.68;2.75;;;;;;;14.04;52.42;99821.47;5584405;31;32084;-56
2023/04/12 11:12:35;;;;;;;7.15;2.85;;;;;;;13.81;41.52;99815.44;5581857;31;34395;-56
2023/04/12 11:15:39;;;;;;;4.37;2.55;;;;;;;13.80;45.10;99821.13;5586318;31;34373;-56
2023/04/12 11:18:45;;;;;;;;;;;;;;;13.91;41.25;99808.94;5579369;31;34115;-56
2023/04/12 11:21:48;;;;;;;5.03;2.30;;;;;;;14.03;40.37;99805.63;5576602;31;33871;-56
2023/04/12 11:24:53;;;;;;;3.90;2.10;;;;;;;14.04;40.64;99813.41;5579272;31;33906;-56
2023/04/12 11:27:56;;;;;;;5.50;2.37;;;;;;;14.08;41.42;99806.25;5582783;31;33681;-56
2023/04/12 11:31:00;;;;;;;6.28;2.50;;;;;;;14.05;41.77;99806.88;5575740;31;33311;-56
2023/04/12 11:34:02;;;;;;;3.47;2.50;;;;;;;14.24;44.21;99803.09;5575783;31;33607;-56
2023/04/12 11:37:09;;;;;;;5.05;2.55;;;;;;;14.22;39.58;99802.59;5578585;31;33649;-56
2023/04/12 11:40:11;;;;;;;5.80;2.90;;;;;;;14.10;38.64;99805.94;5577633;31;33068;-55
2023/04/12 11:43:20;;;;;;;5.15;2.50;;;;;;;14.12;44.75;99800.22;5573719;31;33763;-56
2023/04/12 11:46:32;;;;;;;3.83;2.12;;;;;;;14.16;39.76;99790.41;5581982;31;33980;-55
2023/04/12 11:49:35;;;;;;;4.93;2.50;;;;;;;14.27;39.34;99795.16;5580972;31;33391;-57
2023/04/12 11:52:39;;;;;;;2.95;1.92;;;;;;;14.13;40.15;99786.44;5565858;31;33691;-55
2023/04/12 11:55:53;;;;;;;4.87;2.53;;;;;;;14.31;41.07;99782.63;5569186;31;34295;-57
2023/04/12 11:58:59;;;;;;;5.28;2.00;;;;;;;14.25;38.30;99781.19;5568278;31;33790;-56
2023/04/12 12:02:03;;;;;;;4.75;2.08;;;;;;;14.33;44.33;99776.88;5580688;31;33787;-57
2023/04/12 12:05:23;;;;;;;5.70;2.35;;;;;;;14.30;35.65;99769.44;5568121;31;33830;-58
2023/04/12 12:08:26;;;;;;;4.97;3.22;;;;;;;14.32;39.45;99768.00;5567484;31;33919;-57
2023/04/12 12:11:30;;;;;;;5.18;2.37;;;;;;;14.28;38.61;99760.91;5585545;31;34179;-57
2023/04/12 12:14:36;;;;;;;8.65;2.42;;;;;;;14.19;39.16;99762.81;5580964;31;33674;-58
2023/04/12 12:17:39;;;;;;;3.50;2.20;;;;;;;14.27;39.07;99759.28;5577062;31;33660;-58
2023/04/12 12:20:49;;;;;;;2.78;1.75;;;;;;;14.27;39.35;99751.19;5574033;31;33643;-58
2023/04/12 12:23:51;;;;;;;7.47;2.00;;;;;;;14.44;40.78;99751.19;5577585;31;34255;-58
2023/04/12 12:26:54;;;;;;;4.12;1.77;;;;;;;14.50;36.95;99749.09;5589547;31;33723;-58
2023/04/12 12:30:03;;;;;;;2.40;1.80;;;;;;;14.67;37.32;99741.00;5589341;31;33626;-58
2023/04/12 12:33:06;;;;;;;5.70;1.90;;;;;;;14.53;34.76;99740.41;5589098;31;33715;-58
2023/04/12 12:36:09;;;;;;;3.53;2.00;;;;;;;14.47;34.92;99728.97;5589401;31;34375;-58
2023/04/12 12:39:11;;;;;;;3.97;2.03;;;;;;;14.67;38.50;99735.59;5589258;31;33758;-57
2023/04/12 12:42:14;;;;;;;4.45;1.90;;;;;;;14.62;38.14;99726.87;5589164;31;33755;-58
2023/04/12 12:45:19;;;;;;;4.80;1.75;;;;;;;14.63;36.15;99731.16;5588038;31;33631;-58
2023/04/12 12:48:22;;;;;;;3.47;1.83;;;;;;;14.74;35.24;99729.72;5569630;32;32320;-58
2023/04/12 12:51:25;;;;;;;3.58;1.70;;;;;;;14.89;36.75;99712.19;5569719;32;33641;-58
2023/04/12 12:54:28;;;;;;;5.25;1.77;;;;;;;14.82;35.90;99717.28;5568932;32;35157;-58
2023/04/12 12:57:43;;;;;;;3.28;1.65;;;;;;;14.82;34.41;99723.47;5569756;32;33943;-58
2023/04/12 13:00:56;;;;;;;2.40;1.40;;;;;;;14.70;33.22;99717.97;5569754;32;34293;-58
2023/04/12 13:03:58;;;;;;;6.35;2.30;;;;;;;14.83;42.42;99718.87;5575703;31;34416;-58
2023/04/12 13:07:01;;;;;;;5.20;2.08;;;;;;;15.01;39.70;99720.38;5573227;31;33569;-58
2023/04/12 13:10:04;;;;;;;3.03;1.80;;;;;;;15.08;33.19;99714.47;5569779;32;34750;-58
2023/04/12 13:13:07;;;;;;;3.80;1.85;;;;;;;14.95;32.83;99711.66;5569386;32;33611;-57
2023/04/12 13:16:10;;;;;;;4.82;1.90;;;;;;;14.98;33.53;99702.91;5577273;31;33652;-57
2023/04/12 13:19:14;;;;;;;3.33;1.87;;;;;;;15.08;37.32;99701.75;5588550;31;33632;-58
2023/04/12 13:22:17;;;;;;;5.45;1.75;;;;;;;15.16;33.53;99700.12;5589261;31;32212;-57
2023/04/12 13:25:20;;;;;;;2.80;1.70;;;;;;;15.24;33.31;99705.47;5589042;31;34306;-58
2023/04/12 13:28:22;;;;;;;2.05;1.17;;;;;;;15.15;32.55;99698.53;5589019;31;34343;-58
2023/04/12 13:31:25;;;;;;;6.03;1.95;;;;;;;15.19;33.12;99697.53;5588639;31;33306;-58
2023/04/12 13:34:27;;;;;;;4.87;1.75;;;;;;;15.14;32.18;99696.97;5589121;31;33604;-58
2023/04/12 13:37:30;;;;;;;2.55;1.50;;;;;;;15.07;31.07;99700.19;5587949;31;33792;-57
2023/04/12 13:40:32;;;;;;;2.25;1.27;;;;;;;15.06;31.05;99690.47;5588964;31;34357;-58
2023/04/12 13:43:35;;;;;;;5.05;1.37;;;;;;;15.14;32.08;99684.25;5589095;31;34338;-58
2023/04/12 13:46:37;;;;;;;5.28;1.62;;;;;;;15.21;32.15;99679.13;5589078;31;33980;-58
2023/04/12 13:49:40;;;;;;;5.93;1.80;;;;;;;15.18;31.00;99670.88;5588930;31;34316;-58
2023/04/12 13:52:42;;;;;;;2.67;1.50;;;;;;;15.30;33.19;99675.56;5578518;31;33762;-57
2023/04/12 13:55:45;;;;;;;4.68;1.55;;;;;;;15.42;30.51;99683.75;5584135;31;33618;-57
2023/04/12 13:58:47;;;;;;;2.30;1.35;;;;;;;15.45;33.51;99673.06;5574875;31;34312;-57
2023/04/12 14:01:50;;;;;;;3.47;1.75;;;;;;;15.38;35.37;99672.03;5588481;31;35220;-57
2023/04/12 14:04:53;;;;;;;3.03;1.50;;;;;;;15.45;29.92;99669.59;5588379;31;33646;-57
2023/04/12 14:07:56;;;;;;;1.98;1.40;;;;;;;15.36;29.71;99672.34;5589309;31;35430;-58
2023/04/12 14:10:59;;;;;;;7.10;1.60;;;;;;;15.42;32.19;99664.84;5588517;31;33726;-58
2023/04/12 14:14:01;;;;;;;4.18;1.70;;;;;;;15.48;34.13;99668.94;5589123;31;33938;-57
2023/04/12 14:17:03;;;;;;;6.05;1.73;;;;;;;15.50;31.64;99667.47;5588862;31;33657;-58
2023/04/12 14:20:09;;;;;;;4.68;1.60;;;;;;;15.49;29.85;99662.41;5588701;31;34337;-57
2023/04/12 14:23:11;;;;;;;2.90;1.70;;;;;;;15.56;32.46;99670.75;5588516;31;33306;-58
2023/04/12 14:26:17;;;;;;;2.08;1.40;;;;;;;15.61;32.07;99661.66;5588728;31;33741;-58
2023/04/12 14:29:20;;;;;;;3.22;1.70;;;;;;;15.58;30.39;99646.91;5588711;31;34423;-58
2023/04/12 14:32:22;;;;;;;2.95;1.58;;;;;;;15.49;30.97;99659.69;5588919;31;33859;-58
2023/04/12 14:35:25;;;;;;;3.20;1.70;;;;;;;15.40;29.35;99659.00;5588121;31;33639;-58
2023/04/12 14:38:27;;;;;;;3.65;1.50;;;;;;;15.40;32.08;99662.47;5588651;31;34354;-57
2023/04/12 14:41:30;;;;;;;3.62;1.40;;;;;;;15.48;30.58;99664.31;5588155;31;35234;-58
2023/04/12 14:44:32;;;;;;;4.95;1.80;;;;;;;15.45;31.53;99659.56;5588751;31;33636;-57
2023/04/12 14:47:35;;;;;;;3.67;1.70;;;;;;;15.60;32.00;99657.41;5588301;31;33663;-58
2023/04/12 14:50:38;;;;;;;2.87;1.55;;;;;;;15.46;30.51;99653.06;5588994;31;34207;-57
2023/04/12 14:53:42;;;;;;;4.05;1.75;;;;;;;15.45;35.29;99656.88;5588486;31;33573;-58
2023/04/12 14:56:46;;;;;;;5.87;1.70;;;;;;;15.57;33.37;99648.03;5588453;31;34324;-57
2023/04/12 14:59:55;;;;;;;5.45;1.70;;;;;;;15.61;36.12;99651.66;5588485;31;34425;-58
2023/04/12 15:02:59;;;;;;;4.07;1.52;;;;;;;15.65;39.84;99655.25;5588410;31;33751;-58
2023/04/12 15:06:02;;;;;;;3.08;2.00;;;;;;;15.62;31.30;99652.44;5588888;31;33715;-58
2023/04/12 15:09:04;;;;;;;4.75;1.87;;;;;;;15.64;31.43;99653.69;5588312;31;33692;-58
2023/04/12 15:12:08;;;;;;;4.78;2.12;;;;;;;15.66;32.98;99650.66;5588854;31;33747;-58
2023/04/12 15:15:11;;;;;;;3.60;1.65;;;;;;;15.70;31.24;99662.44;5588965;31;33492;-58
2023/04/12 15:18:14;;;;;;;3.50;2.10;;;;;;;15.70;29.42;99655.09;5588948;31;33559;-58
2023/04/12 15:21:16;;;;;;;3.62;1.92;;;;;;;15.64;31.61;99653.69;5588426;31;33625;-58
2023/04/12 15:24:23;;;;;;;4.22;1.95;;;;;;;15.63;31.67;99654.81;5588663;31;33673;-58
2023/04/12 15:27:25;;;;;;;;;;;;;;;15.52;34.49;99662.53;5589046;31;33616;-58
2023/04/12 15:30:27;;;;;;;5.45;2.35;;;;;;;15.56;31.92;99648.34;5588522;31;34124;-58
2023/04/12 15:33:33;;;;;;;4.20;1.87;;;;;;;15.46;30.44;99652.25;5588428;31;33646;-58
2023/04/12 15:36:35;;;;;;;5.75;2.20;;;;;;;15.51;32.14;99654.75;5588613;31;33686;-58
2023/04/12 15:39:39;;;;;;;6.57;2.08;;;;;;;15.40;30.70;99659.00;5588335;31;34486;-58
2023/04/12 15:42:42;;;;;;;4.78;2.30;;;;;;;15.38;31.64;99663.91;5588389;31;34334;-58
2023/04/12 15:45:44;;;;;;;3.53;2.03;;;;;;;15.47;33.60;99661.94;5588462;31;35092;-58
2023/04/12 15:48:47;;;;;;;3.97;1.87;;;;;;;15.44;34.12;99658.00;5588511;31;34367;-58
